sensor_id;sensor_type;location;lat;lon;timestamp;P1;durP1;ratioP1;P2;durP2;ratioP2
20173;SDS011;10246;50.620;7.232;2022-12-29T00:00:02;1.03;;;0.87;;
20173;SDS011;10246;50.620;7.232;2022-12-29T00:02:30;1.20;;;0.90;;
20173;SDS011;10246;50.620;7.232;2022-12-29T00:04:58;1.10;;;0.80;;
20173;SDS011;10246;50.620;7.232;2022-12-29T00:07:25;0.73;;;0.73;;
20173;SDS011;10246;50.620;7.232;2022-12-29T00:09:51;0.77;;;0.73;;
20173;SDS011;10246;50.620;7.232;2022-12-29T00:12:18;0.70;;;0.70;;
20173;SDS011;10246;50.620;7.232;2022-12-29T00:14:45;0.97;;;0.67;;
20173;SDS011;10246;50.620;7.232;2022-12-29T00:17:29;0.80;;;0.80;;
20173;SDS011;10246;50.620;7.232;2022-12-29T00:19:56;1.67;;;0.70;;
20173;SDS011;10246;50.620;7.232;2022-12-29T00:22:42;0.80;;;0.73;;
20173;SDS011;10246;50.620;7.232;2022-12-29T00:25:26;1.57;;;0.80;;
20173;SDS011;10246;50.620;7.232;2022-12-29T00:28:10;3.10;;;0.80;;
20173;SDS011;10246;50.620;7.232;2022-12-29T00:30:58;1.07;;;0.80;;
20173;SDS011;10246;50.620;7.232;2022-12-29T00:33:42;0.70;;;0.70;;
20173;SDS011;10246;50.620;7.232;2022-12-29T00:36:27;0.87;;;0.80;;
20173;SDS011;10246;50.620;7.232;2022-12-29T00:38:59;0.97;;;0.80;;
20173;SDS011;10246;50.620;7.232;2022-12-29T00:41:44;0.93;;;0.83;;
20173;SDS011;10246;50.620;7.232;2022-12-29T00:44:29;0.90;;;0.80;;
20173;SDS011;10246;50.620;7.232;2022-12-29T00:46:55;1.47;;;0.90;;
20173;SDS011;10246;50.620;7.232;2022-12-29T00:49:22;2.30;;;0.90;;
20173;SDS011;10246;50.620;7.232;2022-12-29T00:51:57;1.03;;;0.93;;
20173;SDS011;10246;50.620;7.232;2022-12-29T00:54:28;3.33;;;1.00;;
20173;SDS011;10246;50.620;7.232;2022-12-29T00:56:56;1.07;;;0.97;;
20173;SDS011;10246;50.620;7.232;2022-12-29T00:59:23;1.40;;;0.93;;
20173;SDS011;10246;50.620;7.232;2022-12-29T01:01:50;1.20;;;1.00;;
20173;SDS011;10246;50.620;7.232;2022-12-29T01:04:19;1.63;;;1.03;;
20173;SDS011;10246;50.620;7.232;2022-12-29T01:06:46;0.77;;;0.70;;
20173;SDS011;10246;50.620;7.232;2022-12-29T01:09:13;0.90;;;0.90;;
20173;SDS011;10246;50.620;7.232;2022-12-29T01:11:59;1.47;;;0.90;;
20173;SDS011;10246;50.620;7.232;2022-12-29T01:14:25;1.10;;;0.97;;
20173;SDS011;10246;50.620;7.232;2022-12-29T01:16:53;1.17;;;0.77;;
20173;SDS011;10246;50.620;7.232;2022-12-29T01:19:20;1.47;;;0.83;;
20173;SDS011;10246;50.620;7.232;2022-12-29T01:21:47;1.30;;;0.80;;
20173;SDS011;10246;50.620;7.232;2022-12-29T01:24:14;0.83;;;0.77;;
20173;SDS011;10246;50.620;7.232;2022-12-29T01:26:42;0.50;;;0.50;;
20173;SDS011;10246;50.620;7.232;2022-12-29T01:29:10;1.53;;;1.07;;
20173;SDS011;10246;50.620;7.232;2022-12-29T01:31:37;0.90;;;0.70;;
20173;SDS011;10246;50.620;7.232;2022-12-29T01:34:04;0.70;;;0.50;;
20173;SDS011;10246;50.620;7.232;2022-12-29T01:36:31;0.40;;;0.40;;
20173;SDS011;10246;50.620;7.232;2022-12-29T01:38:58;0.40;;;0.40;;
20173;SDS011;10246;50.620;7.232;2022-12-29T01:41:25;0.47;;;0.43;;
20173;SDS011;10246;50.620;7.232;2022-12-29T01:43:53;0.40;;;0.40;;
20173;SDS011;10246;50.620;7.232;2022-12-29T01:46:24;0.43;;;0.40;;
20173;SDS011;10246;50.620;7.232;2022-12-29T01:48:56;1.03;;;0.50;;
20173;SDS011;10246;50.620;7.232;2022-12-29T01:51:28;1.70;;;0.60;;
20173;SDS011;10246;50.620;7.232;2022-12-29T01:53:57;0.57;;;0.40;;
20173;SDS011;10246;50.620;7.232;2022-12-29T01:56:27;0.40;;;0.40;;
20173;SDS011;10246;50.620;7.232;2022-12-29T01:58:55;0.60;;;0.50;;
20173;SDS011;10246;50.620;7.232;2022-12-29T02:01:30;1.20;;;0.60;;
20173;SDS011;10246;50.620;7.232;2022-12-29T02:03:56;0.77;;;0.50;;
20173;SDS011;10246;50.620;7.232;2022-12-29T02:06:25;0.50;;;0.50;;
20173;SDS011;10246;50.620;7.232;2022-12-29T02:08:55;0.50;;;0.50;;
20173;SDS011;10246;50.620;7.232;2022-12-29T02:11:23;1.03;;;0.60;;
20173;SDS011;10246;50.620;7.232;2022-12-29T02:13:52;0.87;;;0.67;;
20173;SDS011;10246;50.620;7.232;2022-12-29T02:16:30;0.93;;;0.80;;
20173;SDS011;10246;50.620;7.232;2022-12-29T02:19:27;3.00;;;0.57;;
20173;SDS011;10246;50.620;7.232;2022-12-29T02:22:24;1.03;;;0.57;;
20173;SDS011;10246;50.620;7.232;2022-12-29T02:25:20;2.07;;;0.70;;
20173;SDS011;10246;50.620;7.232;2022-12-29T02:31:15;0.97;;;0.70;;
20173;SDS011;10246;50.620;7.232;2022-12-29T02:33:48;0.80;;;0.50;;
20173;SDS011;10246;50.620;7.232;2022-12-29T02:36:22;0.87;;;0.60;;
20173;SDS011;10246;50.620;7.232;2022-12-29T02:38:57;0.77;;;0.50;;
20173;SDS011;10246;50.620;7.232;2022-12-29T02:41:31;0.60;;;0.60;;
20173;SDS011;10246;50.620;7.232;2022-12-29T02:44:01;1.33;;;0.57;;
20173;SDS011;10246;50.620;7.232;2022-12-29T02:46:41;0.57;;;0.57;;
20173;SDS011;10246;50.620;7.232;2022-12-29T02:49:13;0.60;;;0.60;;
20173;SDS011;10246;50.620;7.232;2022-12-29T02:51:46;2.93;;;0.70;;
20173;SDS011;10246;50.620;7.232;2022-12-29T02:54:17;0.60;;;0.50;;
20173;SDS011;10246;50.620;7.232;2022-12-29T02:57:02;0.43;;;0.43;;
20173;SDS011;10246;50.620;7.232;2022-12-29T02:59:31;0.50;;;0.50;;
20173;SDS011;10246;50.620;7.232;2022-12-29T03:02:08;0.47;;;0.47;;
20173;SDS011;10246;50.620;7.232;2022-12-29T03:05:08;1.03;;;0.60;;
20173;SDS011;10246;50.620;7.232;2022-12-29T03:07:46;1.90;;;0.60;;
20173;SDS011;10246;50.620;7.232;2022-12-29T03:10:25;0.53;;;0.53;;
20173;SDS011;10246;50.620;7.232;2022-12-29T03:13:02;1.07;;;0.70;;
20173;SDS011;10246;50.620;7.232;2022-12-29T03:15:54;0.90;;;0.60;;
20173;SDS011;10246;50.620;7.232;2022-12-29T03:18:32;1.30;;;0.50;;
20173;SDS011;10246;50.620;7.232;2022-12-29T03:21:06;0.80;;;0.80;;
20173;SDS011;10246;50.620;7.232;2022-12-29T03:23:37;1.73;;;0.33;;
20173;SDS011;10246;50.620;7.232;2022-12-29T03:26:09;0.73;;;0.60;;
20173;SDS011;10246;50.620;7.232;2022-12-29T03:28:38;0.60;;;0.60;;
20173;SDS011;10246;50.620;7.232;2022-12-29T03:31:07;0.60;;;0.60;;
20173;SDS011;10246;50.620;7.232;2022-12-29T03:33:37;0.50;;;0.50;;
20173;SDS011;10246;50.620;7.232;2022-12-29T03:36:07;1.33;;;0.70;;
20173;SDS011;10246;50.620;7.232;2022-12-29T03:38:37;0.90;;;0.50;;
20173;SDS011;10246;50.620;7.232;2022-12-29T03:41:10;1.00;;;0.63;;
20173;SDS011;10246;50.620;7.232;2022-12-29T03:43:40;0.70;;;0.60;;
20173;SDS011;10246;50.620;7.232;2022-12-29T03:46:07;1.47;;;0.90;;
20173;SDS011;10246;50.620;7.232;2022-12-29T03:48:34;2.30;;;0.50;;
20173;SDS011;10246;50.620;7.232;2022-12-29T03:51:02;0.73;;;0.73;;
20173;SDS011;10246;50.620;7.232;2022-12-29T03:53:29;0.50;;;0.50;;
20173;SDS011;10246;50.620;7.232;2022-12-29T03:55:55;0.50;;;0.50;;
20173;SDS011;10246;50.620;7.232;2022-12-29T03:58:22;0.40;;;0.40;;
20173;SDS011;10246;50.620;7.232;2022-12-29T04:00:49;0.50;;;0.50;;
20173;SDS011;10246;50.620;7.232;2022-12-29T04:03:15;1.20;;;0.60;;
20173;SDS011;10246;50.620;7.232;2022-12-29T04:05:42;0.60;;;0.60;;
20173;SDS011;10246;50.620;7.232;2022-12-29T04:08:10;1.23;;;0.40;;
20173;SDS011;10246;50.620;7.232;2022-12-29T04:10:37;0.40;;;0.40;;
20173;SDS011;10246;50.620;7.232;2022-12-29T04:13:04;1.57;;;0.50;;
20173;SDS011;10246;50.620;7.232;2022-12-29T04:15:30;0.93;;;0.30;;
20173;SDS011;10246;50.620;7.232;2022-12-29T04:17:57;0.57;;;0.50;;
20173;SDS011;10246;50.620;7.232;2022-12-29T04:20:24;0.50;;;0.50;;
20173;SDS011;10246;50.620;7.232;2022-12-29T04:23:08;0.50;;;0.50;;
20173;SDS011;10246;50.620;7.232;2022-12-29T04:25:36;0.43;;;0.40;;
20173;SDS011;10246;50.620;7.232;2022-12-29T04:28:03;0.73;;;0.40;;
20173;SDS011;10246;50.620;7.232;2022-12-29T04:30:30;2.10;;;0.60;;
20173;SDS011;10246;50.620;7.232;2022-12-29T04:32:57;0.63;;;0.40;;
20173;SDS011;10246;50.620;7.232;2022-12-29T04:35:24;1.10;;;0.50;;
20173;SDS011;10246;50.620;7.232;2022-12-29T04:37:50;0.50;;;0.50;;
20173;SDS011;10246;50.620;7.232;2022-12-29T04:40:17;0.40;;;0.40;;
20173;SDS011;10246;50.620;7.232;2022-12-29T04:42:45;0.50;;;0.50;;
20173;SDS011;10246;50.620;7.232;2022-12-29T04:45:12;0.80;;;0.60;;
20173;SDS011;10246;50.620;7.232;2022-12-29T04:47:39;3.10;;;0.60;;
20173;SDS011;10246;50.620;7.232;2022-12-29T04:50:06;1.10;;;0.50;;
20173;SDS011;10246;50.620;7.232;2022-12-29T04:52:33;0.40;;;0.40;;
20173;SDS011;10246;50.620;7.232;2022-12-29T04:55:00;0.60;;;0.60;;
20173;SDS011;10246;50.620;7.232;2022-12-29T04:57:28;0.40;;;0.40;;
20173;SDS011;10246;50.620;7.232;2022-12-29T04:59:56;1.00;;;0.53;;
20173;SDS011;10246;50.620;7.232;2022-12-29T05:02:22;0.80;;;0.50;;
20173;SDS011;10246;50.620;7.232;2022-12-29T05:04:49;0.70;;;0.50;;
20173;SDS011;10246;50.620;7.232;2022-12-29T05:07:16;0.63;;;0.63;;
20173;SDS011;10246;50.620;7.232;2022-12-29T05:09:44;0.50;;;0.50;;
20173;SDS011;10246;50.620;7.232;2022-12-29T05:12:11;0.70;;;0.60;;
20173;SDS011;10246;50.620;7.232;2022-12-29T05:14:38;0.67;;;0.50;;
20173;SDS011;10246;50.620;7.232;2022-12-29T05:17:06;0.97;;;0.50;;
20173;SDS011;10246;50.620;7.232;2022-12-29T05:19:33;0.63;;;0.40;;
20173;SDS011;10246;50.620;7.232;2022-12-29T05:21:59;0.87;;;0.53;;
20173;SDS011;10246;50.620;7.232;2022-12-29T05:24:26;0.53;;;0.40;;
20173;SDS011;10246;50.620;7.232;2022-12-29T05:26:54;0.93;;;0.50;;
20173;SDS011;10246;50.620;7.232;2022-12-29T05:29:21;0.63;;;0.60;;
20173;SDS011;10246;50.620;7.232;2022-12-29T05:31:47;1.50;;;0.60;;
20173;SDS011;10246;50.620;7.232;2022-12-29T05:34:15;2.10;;;0.73;;
20173;SDS011;10246;50.620;7.232;2022-12-29T05:36:42;1.60;;;0.60;;
20173;SDS011;10246;50.620;7.232;2022-12-29T05:39:09;0.83;;;0.70;;
20173;SDS011;10246;50.620;7.232;2022-12-29T05:41:36;0.60;;;0.50;;
20173;SDS011;10246;50.620;7.232;2022-12-29T05:44:03;1.03;;;0.70;;
20173;SDS011;10246;50.620;7.232;2022-12-29T05:46:30;0.70;;;0.60;;
20173;SDS011;10246;50.620;7.232;2022-12-29T05:48:56;0.60;;;0.60;;
20173;SDS011;10246;50.620;7.232;2022-12-29T05:51:25;0.70;;;0.70;;
20173;SDS011;10246;50.620;7.232;2022-12-29T05:53:51;0.83;;;0.60;;
20173;SDS011;10246;50.620;7.232;2022-12-29T05:56:18;0.90;;;0.67;;
20173;SDS011;10246;50.620;7.232;2022-12-29T05:58:45;2.17;;;0.80;;
20173;SDS011;10246;50.620;7.232;2022-12-29T06:01:12;0.97;;;0.73;;
20173;SDS011;10246;50.620;7.232;2022-12-29T06:03:39;1.53;;;0.67;;
20173;SDS011;10246;50.620;7.232;2022-12-29T06:06:05;0.70;;;0.70;;
20173;SDS011;10246;50.620;7.232;2022-12-29T06:08:34;0.70;;;0.70;;
20173;SDS011;10246;50.620;7.232;2022-12-29T06:11:01;1.50;;;0.77;;
20173;SDS011;10246;50.620;7.232;2022-12-29T06:13:27;1.00;;;0.60;;
20173;SDS011;10246;50.620;7.232;2022-12-29T06:15:54;0.70;;;0.70;;
20173;SDS011;10246;50.620;7.232;2022-12-29T06:18:21;1.23;;;0.70;;
20173;SDS011;10246;50.620;7.232;2022-12-29T06:20:48;1.13;;;0.80;;
20173;SDS011;10246;50.620;7.232;2022-12-29T06:23:14;0.70;;;0.60;;
20173;SDS011;10246;50.620;7.232;2022-12-29T06:25:44;2.03;;;0.80;;
20173;SDS011;10246;50.620;7.232;2022-12-29T06:28:13;0.70;;;0.70;;
20173;SDS011;10246;50.620;7.232;2022-12-29T06:30:40;2.20;;;0.60;;
20173;SDS011;10246;50.620;7.232;2022-12-29T06:33:09;1.60;;;0.77;;
20173;SDS011;10246;50.620;7.232;2022-12-29T06:35:36;2.07;;;0.80;;
20173;SDS011;10246;50.620;7.232;2022-12-29T06:38:03;0.97;;;0.67;;
20173;SDS011;10246;50.620;7.232;2022-12-29T06:40:30;1.00;;;0.60;;
20173;SDS011;10246;50.620;7.232;2022-12-29T06:42:58;0.70;;;0.50;;
20173;SDS011;10246;50.620;7.232;2022-12-29T06:45:25;2.40;;;0.70;;
20173;SDS011;10246;50.620;7.232;2022-12-29T06:47:52;0.60;;;0.60;;
20173;SDS011;10246;50.620;7.232;2022-12-29T06:50:19;1.10;;;1.00;;
20173;SDS011;10246;50.620;7.232;2022-12-29T06:52:45;1.00;;;0.70;;
20173;SDS011;10246;50.620;7.232;2022-12-29T06:55:12;0.70;;;0.70;;
20173;SDS011;10246;50.620;7.232;2022-12-29T06:57:39;1.20;;;0.70;;
20173;SDS011;10246;50.620;7.232;2022-12-29T07:00:09;0.73;;;0.70;;
20173;SDS011;10246;50.620;7.232;2022-12-29T07:02:36;0.50;;;0.50;;
20173;SDS011;10246;50.620;7.232;2022-12-29T07:05:03;0.60;;;0.60;;
20173;SDS011;10246;50.620;7.232;2022-12-29T07:07:30;1.20;;;0.50;;
20173;SDS011;10246;50.620;7.232;2022-12-29T07:09:56;0.50;;;0.50;;
20173;SDS011;10246;50.620;7.232;2022-12-29T07:12:23;2.03;;;0.47;;
20173;SDS011;10246;50.620;7.232;2022-12-29T07:14:50;0.40;;;0.40;;
20173;SDS011;10246;50.620;7.232;2022-12-29T07:17:18;0.57;;;0.30;;
20173;SDS011;10246;50.620;7.232;2022-12-29T07:19:45;0.40;;;0.40;;
20173;SDS011;10246;50.620;7.232;2022-12-29T07:22:12;0.47;;;0.47;;
20173;SDS011;10246;50.620;7.232;2022-12-29T07:24:38;0.70;;;0.60;;
20173;SDS011;10246;50.620;7.232;2022-12-29T07:27:05;2.33;;;0.40;;
20173;SDS011;10246;50.620;7.232;2022-12-29T07:29:32;0.70;;;0.30;;
20173;SDS011;10246;50.620;7.232;2022-12-29T07:31:59;0.40;;;0.40;;
20173;SDS011;10246;50.620;7.232;2022-12-29T07:34:27;0.40;;;0.37;;
20173;SDS011;10246;50.620;7.232;2022-12-29T07:36:54;0.73;;;0.50;;
20173;SDS011;10246;50.620;7.232;2022-12-29T07:39:21;1.00;;;0.50;;
20173;SDS011;10246;50.620;7.232;2022-12-29T07:41:47;1.80;;;0.73;;
20173;SDS011;10246;50.620;7.232;2022-12-29T07:44:14;0.83;;;0.50;;
20173;SDS011;10246;50.620;7.232;2022-12-29T07:46:41;0.50;;;0.50;;
20173;SDS011;10246;50.620;7.232;2022-12-29T07:49:07;1.10;;;0.50;;
20173;SDS011;10246;50.620;7.232;2022-12-29T07:51:36;0.67;;;0.40;;
20173;SDS011;10246;50.620;7.232;2022-12-29T07:54:02;1.23;;;0.60;;
20173;SDS011;10246;50.620;7.232;2022-12-29T07:56:29;0.77;;;0.40;;
20173;SDS011;10246;50.620;7.232;2022-12-29T07:58:56;0.63;;;0.33;;
20173;SDS011;10246;50.620;7.232;2022-12-29T08:01:23;1.40;;;0.60;;
20173;SDS011;10246;50.620;7.232;2022-12-29T08:03:49;1.20;;;0.73;;
20173;SDS011;10246;50.620;7.232;2022-12-29T08:06:16;0.70;;;0.40;;
20173;SDS011;10246;50.620;7.232;2022-12-29T08:08:44;2.23;;;0.50;;
20173;SDS011;10246;50.620;7.232;2022-12-29T08:11:11;1.20;;;0.50;;
20173;SDS011;10246;50.620;7.232;2022-12-29T08:13:38;0.50;;;0.33;;
20173;SDS011;10246;50.620;7.232;2022-12-29T08:16:05;1.50;;;0.70;;
20173;SDS011;10246;50.620;7.232;2022-12-29T08:18:32;0.70;;;0.50;;
20173;SDS011;10246;50.620;7.232;2022-12-29T08:21:01;2.57;;;0.57;;
20173;SDS011;10246;50.620;7.232;2022-12-29T08:23:29;1.47;;;0.50;;
20173;SDS011;10246;50.620;7.232;2022-12-29T08:26:00;2.23;;;0.80;;
20173;SDS011;10246;50.620;7.232;2022-12-29T08:28:30;1.53;;;0.57;;
20173;SDS011;10246;50.620;7.232;2022-12-29T08:30:58;1.73;;;0.30;;
20173;SDS011;10246;50.620;7.232;2022-12-29T08:33:25;2.13;;;0.60;;
20173;SDS011;10246;50.620;7.232;2022-12-29T08:35:52;2.03;;;0.60;;
20173;SDS011;10246;50.620;7.232;2022-12-29T08:38:26;1.10;;;0.70;;
20173;SDS011;10246;50.620;7.232;2022-12-29T08:40:53;2.33;;;0.53;;
20173;SDS011;10246;50.620;7.232;2022-12-29T08:43:21;2.03;;;0.50;;
20173;SDS011;10246;50.620;7.232;2022-12-29T08:45:48;1.70;;;0.60;;
20173;SDS011;10246;50.620;7.232;2022-12-29T08:48:15;1.47;;;0.50;;
20173;SDS011;10246;50.620;7.232;2022-12-29T08:50:44;0.93;;;0.53;;
20173;SDS011;10246;50.620;7.232;2022-12-29T08:53:11;2.03;;;0.60;;
20173;SDS011;10246;50.620;7.232;2022-12-29T08:55:38;1.30;;;0.70;;
20173;SDS011;10246;50.620;7.232;2022-12-29T08:58:05;1.50;;;0.43;;
20173;SDS011;10246;50.620;7.232;2022-12-29T09:00:33;1.40;;;0.60;;
20173;SDS011;10246;50.620;7.232;2022-12-29T09:03:01;1.40;;;0.50;;
20173;SDS011;10246;50.620;7.232;2022-12-29T09:05:27;2.23;;;0.70;;
20173;SDS011;10246;50.620;7.232;2022-12-29T09:07:54;1.27;;;0.43;;
20173;SDS011;10246;50.620;7.232;2022-12-29T09:10:21;2.20;;;0.67;;
20173;SDS011;10246;50.620;7.232;2022-12-29T09:12:48;4.07;;;0.70;;
20173;SDS011;10246;50.620;7.232;2022-12-29T09:15:15;1.30;;;0.50;;
20173;SDS011;10246;50.620;7.232;2022-12-29T09:17:43;4.70;;;0.60;;
20173;SDS011;10246;50.620;7.232;2022-12-29T09:20:11;1.93;;;0.60;;
20173;SDS011;10246;50.620;7.232;2022-12-29T09:22:39;2.70;;;0.87;;
20173;SDS011;10246;50.620;7.232;2022-12-29T09:25:06;0.77;;;0.50;;
20173;SDS011;10246;50.620;7.232;2022-12-29T09:27:34;3.07;;;0.80;;
20173;SDS011;10246;50.620;7.232;2022-12-29T09:30:01;4.47;;;0.73;;
20173;SDS011;10246;50.620;7.232;2022-12-29T09:32:28;3.27;;;0.70;;
20173;SDS011;10246;50.620;7.232;2022-12-29T09:34:56;1.70;;;0.70;;
20173;SDS011;10246;50.620;7.232;2022-12-29T09:37:23;1.30;;;0.70;;
20173;SDS011;10246;50.620;7.232;2022-12-29T09:39:50;1.30;;;0.90;;
20173;SDS011;10246;50.620;7.232;2022-12-29T09:42:18;3.07;;;0.70;;
20173;SDS011;10246;50.620;7.232;2022-12-29T09:44:53;2.73;;;0.90;;
20173;SDS011;10246;50.620;7.232;2022-12-29T09:47:27;4.10;;;1.00;;
20173;SDS011;10246;50.620;7.232;2022-12-29T09:49:58;1.20;;;0.73;;
20173;SDS011;10246;50.620;7.232;2022-12-29T09:52:30;3.83;;;0.80;;
20173;SDS011;10246;50.620;7.232;2022-12-29T09:54:58;4.13;;;0.83;;
20173;SDS011;10246;50.620;7.232;2022-12-29T09:57:29;3.23;;;1.37;;
20173;SDS011;10246;50.620;7.232;2022-12-29T10:00:02;4.37;;;0.90;;
20173;SDS011;10246;50.620;7.232;2022-12-29T10:02:36;3.03;;;0.90;;
20173;SDS011;10246;50.620;7.232;2022-12-29T10:05:15;4.17;;;1.00;;
20173;SDS011;10246;50.620;7.232;2022-12-29T10:07:49;3.83;;;0.60;;
20173;SDS011;10246;50.620;7.232;2022-12-29T10:10:27;1.87;;;0.70;;
20173;SDS011;10246;50.620;7.232;2022-12-29T10:13:00;3.87;;;0.80;;
20173;SDS011;10246;50.620;7.232;2022-12-29T10:15:39;3.10;;;1.00;;
20173;SDS011;10246;50.620;7.232;2022-12-29T10:18:18;2.50;;;0.70;;
20173;SDS011;10246;50.620;7.232;2022-12-29T10:20:55;3.63;;;1.00;;
20173;SDS011;10246;50.620;7.232;2022-12-29T10:23:29;2.00;;;0.80;;
20173;SDS011;10246;50.620;7.232;2022-12-29T10:26:01;2.47;;;1.00;;
20173;SDS011;10246;50.620;7.232;2022-12-29T10:28:33;3.70;;;0.77;;
20173;SDS011;10246;50.620;7.232;2022-12-29T10:31:03;2.90;;;1.07;;
20173;SDS011;10246;50.620;7.232;2022-12-29T10:33:35;5.40;;;3.17;;
20173;SDS011;10246;50.620;7.232;2022-12-29T10:36:11;6.00;;;2.07;;
20173;SDS011;10246;50.620;7.232;2022-12-29T10:38:43;2.90;;;1.20;;
20173;SDS011;10246;50.620;7.232;2022-12-29T10:41:16;3.97;;;0.90;;
20173;SDS011;10246;50.620;7.232;2022-12-29T10:43:47;2.13;;;0.70;;
20173;SDS011;10246;50.620;7.232;2022-12-29T10:46:17;3.50;;;0.63;;
20173;SDS011;10246;50.620;7.232;2022-12-29T10:48:47;2.97;;;0.70;;
20173;SDS011;10246;50.620;7.232;2022-12-29T10:51:18;4.07;;;0.80;;
20173;SDS011;10246;50.620;7.232;2022-12-29T10:53:48;1.87;;;0.70;;
20173;SDS011;10246;50.620;7.232;2022-12-29T10:56:21;4.20;;;0.87;;
20173;SDS011;10246;50.620;7.232;2022-12-29T10:58:53;2.70;;;0.93;;
20173;SDS011;10246;50.620;7.232;2022-12-29T11:01:23;5.13;;;1.03;;
20173;SDS011;10246;50.620;7.232;2022-12-29T11:03:58;2.93;;;0.80;;
20173;SDS011;10246;50.620;7.232;2022-12-29T11:06:31;3.73;;;0.70;;
20173;SDS011;10246;50.620;7.232;2022-12-29T11:09:01;2.80;;;1.00;;
20173;SDS011;10246;50.620;7.232;2022-12-29T11:11:34;2.97;;;0.80;;
20173;SDS011;10246;50.620;7.232;2022-12-29T11:14:02;3.67;;;0.80;;
20173;SDS011;10246;50.620;7.232;2022-12-29T11:16:38;4.63;;;1.13;;
20173;SDS011;10246;50.620;7.232;2022-12-29T11:19:10;2.10;;;0.70;;
20173;SDS011;10246;50.620;7.232;2022-12-29T11:21:47;6.13;;;1.00;;
20173;SDS011;10246;50.620;7.232;2022-12-29T11:24:24;2.97;;;0.60;;
20173;SDS011;10246;50.620;7.232;2022-12-29T11:26:52;5.37;;;0.97;;
20173;SDS011;10246;50.620;7.232;2022-12-29T11:29:23;1.73;;;0.80;;
20173;SDS011;10246;50.620;7.232;2022-12-29T11:31:52;2.80;;;0.90;;
20173;SDS011;10246;50.620;7.232;2022-12-29T11:34:21;2.37;;;0.87;;
20173;SDS011;10246;50.620;7.232;2022-12-29T11:36:51;2.80;;;0.80;;
20173;SDS011;10246;50.620;7.232;2022-12-29T11:39:26;4.20;;;0.83;;
20173;SDS011;10246;50.620;7.232;2022-12-29T11:41:56;6.53;;;1.00;;
20173;SDS011;10246;50.620;7.232;2022-12-29T11:44:23;2.93;;;1.17;;
20173;SDS011;10246;50.620;7.232;2022-12-29T11:46:51;2.23;;;0.87;;
20173;SDS011;10246;50.620;7.232;2022-12-29T11:49:19;2.80;;;1.20;;
20173;SDS011;10246;50.620;7.232;2022-12-29T11:51:48;4.70;;;0.93;;
20173;SDS011;10246;50.620;7.232;2022-12-29T11:54:19;6.53;;;1.13;;
20173;SDS011;10246;50.620;7.232;2022-12-29T11:56:51;4.83;;;1.30;;
20173;SDS011;10246;50.620;7.232;2022-12-29T11:59:24;3.97;;;0.80;;
20173;SDS011;10246;50.620;7.232;2022-12-29T12:02:22;4.50;;;1.00;;
20173;SDS011;10246;50.620;7.232;2022-12-29T12:05:01;4.13;;;0.93;;
20173;SDS011;10246;50.620;7.232;2022-12-29T12:07:39;8.20;;;1.23;;
20173;SDS011;10246;50.620;7.232;2022-12-29T12:10:15;4.87;;;1.27;;
20173;SDS011;10246;50.620;7.232;2022-12-29T12:12:47;2.40;;;0.80;;
20173;SDS011;10246;50.620;7.232;2022-12-29T12:15:18;5.20;;;0.97;;
20173;SDS011;10246;50.620;7.232;2022-12-29T12:17:49;6.67;;;1.63;;
20173;SDS011;10246;50.620;7.232;2022-12-29T12:20:20;5.00;;;1.60;;
20173;SDS011;10246;50.620;7.232;2022-12-29T12:22:51;7.60;;;2.10;;
20173;SDS011;10246;50.620;7.232;2022-12-29T12:25:27;4.87;;;1.33;;
20173;SDS011;10246;50.620;7.232;2022-12-29T12:28:00;9.63;;;1.47;;
20173;SDS011;10246;50.620;7.232;2022-12-29T12:30:36;4.10;;;1.13;;
20173;SDS011;10246;50.620;7.232;2022-12-29T12:33:11;4.50;;;1.23;;
20173;SDS011;10246;50.620;7.232;2022-12-29T12:35:46;4.67;;;1.77;;
20173;SDS011;10246;50.620;7.232;2022-12-29T12:38:21;3.13;;;1.20;;
20173;SDS011;10246;50.620;7.232;2022-12-29T12:40:59;5.97;;;2.50;;
20173;SDS011;10246;50.620;7.232;2022-12-29T12:43:37;5.83;;;2.00;;
20173;SDS011;10246;50.620;7.232;2022-12-29T12:46:13;4.33;;;1.20;;
20173;SDS011;10246;50.620;7.232;2022-12-29T12:48:57;5.90;;;1.67;;
20173;SDS011;10246;50.620;7.232;2022-12-29T12:51:59;4.10;;;1.40;;
20173;SDS011;10246;50.620;7.232;2022-12-29T12:54:38;4.13;;;1.33;;
20173;SDS011;10246;50.620;7.232;2022-12-29T12:57:18;3.73;;;1.30;;
20173;SDS011;10246;50.620;7.232;2022-12-29T12:59:53;3.13;;;1.20;;
20173;SDS011;10246;50.620;7.232;2022-12-29T13:02:29;4.17;;;0.97;;
20173;SDS011;10246;50.620;7.232;2022-12-29T13:05:06;4.37;;;1.40;;
20173;SDS011;10246;50.620;7.232;2022-12-29T13:07:44;2.27;;;1.00;;
20173;SDS011;10246;50.620;7.232;2022-12-29T13:10:24;5.87;;;1.30;;
20173;SDS011;10246;50.620;7.232;2022-12-29T13:13:03;3.70;;;1.07;;
20173;SDS011;10246;50.620;7.232;2022-12-29T13:15:45;5.23;;;1.00;;
20173;SDS011;10246;50.620;7.232;2022-12-29T13:18:19;4.30;;;1.17;;
20173;SDS011;10246;50.620;7.232;2022-12-29T13:20:53;4.50;;;1.33;;
20173;SDS011;10246;50.620;7.232;2022-12-29T13:23:25;5.13;;;1.33;;
20173;SDS011;10246;50.620;7.232;2022-12-29T13:25:59;5.03;;;1.00;;
20173;SDS011;10246;50.620;7.232;2022-12-29T13:28:39;3.93;;;1.10;;
20173;SDS011;10246;50.620;7.232;2022-12-29T13:31:13;3.77;;;1.37;;
20173;SDS011;10246;50.620;7.232;2022-12-29T13:33:46;4.63;;;1.03;;
20173;SDS011;10246;50.620;7.232;2022-12-29T13:36:22;4.37;;;1.50;;
20173;SDS011;10246;50.620;7.232;2022-12-29T13:38:53;4.50;;;0.73;;
20173;SDS011;10246;50.620;7.232;2022-12-29T13:41:29;4.13;;;1.23;;
20173;SDS011;10246;50.620;7.232;2022-12-29T13:44:00;3.70;;;1.10;;
20173;SDS011;10246;50.620;7.232;2022-12-29T13:46:33;2.93;;;1.10;;
20173;SDS011;10246;50.620;7.232;2022-12-29T13:49:03;5.20;;;1.33;;
20173;SDS011;10246;50.620;7.232;2022-12-29T13:51:33;3.70;;;1.30;;
20173;SDS011;10246;50.620;7.232;2022-12-29T13:54:04;3.73;;;1.40;;
20173;SDS011;10246;50.620;7.232;2022-12-29T13:56:40;3.53;;;1.20;;
20173;SDS011;10246;50.620;7.232;2022-12-29T13:59:16;4.90;;;1.40;;
20173;SDS011;10246;50.620;7.232;2022-12-29T14:01:49;4.47;;;1.30;;
20173;SDS011;10246;50.620;7.232;2022-12-29T14:04:22;4.83;;;1.37;;
20173;SDS011;10246;50.620;7.232;2022-12-29T14:07:01;4.30;;;1.00;;
20173;SDS011;10246;50.620;7.232;2022-12-29T14:09:37;3.10;;;1.27;;
20173;SDS011;10246;50.620;7.232;2022-12-29T14:12:18;4.90;;;1.27;;
20173;SDS011;10246;50.620;7.232;2022-12-29T14:15:03;4.63;;;1.30;;
20173;SDS011;10246;50.620;7.232;2022-12-29T14:17:32;3.33;;;1.30;;
20173;SDS011;10246;50.620;7.232;2022-12-29T14:19:59;3.30;;;1.17;;
20173;SDS011;10246;50.620;7.232;2022-12-29T14:22:26;3.47;;;0.90;;
20173;SDS011;10246;50.620;7.232;2022-12-29T14:24:54;3.50;;;1.23;;
20173;SDS011;10246;50.620;7.232;2022-12-29T14:33:27;2.70;;;1.13;;
20173;SDS011;10246;50.620;7.232;2022-12-29T14:35:55;4.47;;;1.50;;
20173;SDS011;10246;50.620;7.232;2022-12-29T14:38:24;2.87;;;1.17;;
20173;SDS011;10246;50.620;7.232;2022-12-29T14:43:51;7.37;;;2.60;;
20173;SDS011;10246;50.620;7.232;2022-12-29T14:46:21;6.83;;;1.83;;
20173;SDS011;10246;50.620;7.232;2022-12-29T14:48:52;3.43;;;1.33;;
20173;SDS011;10246;50.620;7.232;2022-12-29T14:51:28;4.27;;;1.40;;
20173;SDS011;10246;50.620;7.232;2022-12-29T14:57:02;4.03;;;1.80;;
20173;SDS011;10246;50.620;7.232;2022-12-29T14:59:31;4.83;;;1.50;;
20173;SDS011;10246;50.620;7.232;2022-12-29T15:02:00;4.57;;;1.27;;
20173;SDS011;10246;50.620;7.232;2022-12-29T15:04:30;5.30;;;1.70;;
20173;SDS011;10246;50.620;7.232;2022-12-29T15:06:59;5.70;;;1.57;;
20173;SDS011;10246;50.620;7.232;2022-12-29T15:09:29;5.00;;;1.63;;
20173;SDS011;10246;50.620;7.232;2022-12-29T15:12:01;2.30;;;1.00;;
20173;SDS011;10246;50.620;7.232;2022-12-29T15:14:38;4.03;;;1.50;;
20173;SDS011;10246;50.620;7.232;2022-12-29T15:17:23;8.60;;;1.30;;
20173;SDS011;10246;50.620;7.232;2022-12-29T15:19:51;5.00;;;1.20;;
20173;SDS011;10246;50.620;7.232;2022-12-29T15:22:18;4.27;;;1.30;;
20173;SDS011;10246;50.620;7.232;2022-12-29T15:24:45;6.20;;;1.53;;